createdAt,value
2018-06-05T00:00:46.532Z,1011.93
2018-06-05T00:01:25.536Z,1011.96
2018-06-05T00:02:25.560Z,1011.94
2018-06-05T00:03:25.582Z,1011.91
2018-06-05T00:04:25.604Z,1011.93
2018-06-05T00:05:25.625Z,1011.90
2018-06-05T00:06:46.664Z,1011.89
2018-06-05T00:07:25.678Z,1011.90
2018-06-05T00:08:25.694Z,1011.88
2018-06-05T00:09:25.721Z,1011.89
2018-06-05T00:10:25.739Z,1011.84
2018-06-05T00:11:25.761Z,1011.89
2018-06-05T00:12:46.818Z,1011.89
2018-06-05T00:13:25.809Z,1011.87
2018-06-05T00:14:25.832Z,1011.87
2018-06-05T00:15:25.851Z,1011.86
2018-06-05T00:16:25.875Z,1011.85
2018-06-05T00:17:25.898Z,1011.85
2018-06-05T00:18:46.936Z,1011.84
2018-06-05T00:19:25.943Z,1011.85
2018-06-05T00:20:25.966Z,1011.90
2018-06-05T00:21:25.987Z,1011.87
2018-06-05T00:22:26.009Z,1011.86
2018-06-05T00:23:26.035Z,1011.88
2018-06-05T00:24:47.074Z,1011.88
2018-06-05T00:25:26.078Z,1011.88
2018-06-05T00:26:26.102Z,1011.90
2018-06-05T00:27:26.125Z,1011.89
2018-06-05T00:28:26.150Z,1011.91
2018-06-05T00:29:26.177Z,1011.91
2018-06-05T00:30:47.211Z,1011.90
2018-06-05T00:31:26.215Z,1011.90
2018-06-05T00:32:26.238Z,1011.89
2018-06-05T00:33:26.258Z,1011.89
2018-06-05T00:34:26.281Z,1011.93
2018-06-05T00:35:26.304Z,1011.89
2018-06-05T00:36:47.343Z,1011.89
2018-06-05T00:37:26.351Z,1011.87
2018-06-05T00:38:26.370Z,1011.81
2018-06-05T00:39:26.393Z,1011.85
2018-06-05T00:40:26.416Z,1011.83
2018-06-05T00:41:26.442Z,1011.80
2018-06-05T00:42:47.476Z,1011.87
2018-06-05T00:43:26.484Z,1011.86
2018-06-05T00:44:26.507Z,1011.87
2018-06-05T00:45:26.531Z,1011.91
2018-06-05T00:46:26.555Z,1011.88
2018-06-05T00:47:26.575Z,1011.84
2018-06-05T00:48:47.614Z,1011.90
2018-06-05T00:49:26.620Z,1011.88
2018-06-05T00:50:26.643Z,1011.90
2018-06-05T00:51:26.663Z,1011.84
2018-06-05T00:52:26.689Z,1011.88
2018-06-05T00:53:26.713Z,1011.84
2018-06-05T00:54:47.752Z,1011.85
2018-06-05T00:55:26.754Z,1011.85
2018-06-05T00:56:26.783Z,1011.85
2018-06-05T00:57:26.801Z,1011.87
2018-06-05T00:58:26.824Z,1011.80
2018-06-05T00:59:26.843Z,1011.84
2018-06-05T01:00:47.885Z,1011.87
2018-06-05T01:01:26.890Z,1011.79
2018-06-05T01:02:26.912Z,1011.82
2018-06-05T01:03:26.938Z,1011.85
2018-06-05T01:04:26.959Z,1011.82
2018-06-05T01:05:26.980Z,1011.88
2018-06-05T01:06:48.019Z,1011.88
2018-06-05T01:07:27.026Z,1011.81
2018-06-05T01:08:27.049Z,1011.86
2018-06-05T01:09:27.078Z,1011.84
2018-06-05T01:10:27.092Z,1011.85
2018-06-05T01:11:27.115Z,1011.87
2018-06-05T01:12:48.156Z,1011.85
2018-06-05T01:13:27.163Z,1011.85
2018-06-05T01:14:27.183Z,1011.83
2018-06-05T01:15:27.205Z,1011.86
2018-06-05T01:16:27.231Z,1011.80
2018-06-05T01:17:27.254Z,1011.84
2018-06-05T01:18:48.293Z,1011.82
2018-06-05T01:19:27.297Z,1011.83
2018-06-05T01:20:27.324Z,1011.82
2018-06-05T01:21:27.345Z,1011.81
2018-06-05T01:22:27.362Z,1011.80
2018-06-05T01:23:27.388Z,1011.80
2018-06-05T01:24:48.426Z,1011.78
2018-06-05T01:25:27.431Z,1011.81
2018-06-05T01:26:27.453Z,1011.84
2018-06-05T01:27:27.478Z,1011.78
2018-06-05T01:28:27.504Z,1011.80
2018-06-05T01:29:27.539Z,1011.79
2018-06-05T01:30:48.560Z,1011.78
2018-06-05T01:31:27.566Z,1011.76
2018-06-05T01:32:27.592Z,1011.77
2018-06-05T01:33:27.618Z,1011.77
2018-06-05T01:34:27.635Z,1011.80
2018-06-05T01:35:27.664Z,1011.76
2018-06-05T01:36:48.696Z,1011.80
2018-06-05T01:37:27.702Z,1011.74
2018-06-05T01:38:27.737Z,1011.75
2018-06-05T01:39:27.746Z,1011.72
2018-06-05T01:40:27.774Z,1011.71
2018-06-05T01:41:27.791Z,1011.73
2018-06-05T01:42:48.836Z,1011.68
2018-06-05T01:43:27.841Z,1011.69
2018-06-05T01:44:27.862Z,1011.66
2018-06-05T01:45:27.884Z,1011.70
2018-06-05T01:46:27.904Z,1011.67
2018-06-05T01:47:27.934Z,1011.71
2018-06-05T01:48:48.971Z,1011.71
2018-06-05T01:49:27.973Z,1011.67
2018-06-05T01:50:28.000Z,1011.69
2018-06-05T01:51:28.017Z,1011.71
2018-06-05T01:52:28.049Z,1011.74
2018-06-05T01:53:28.063Z,1011.74
2018-06-05T01:54:49.120Z,1011.73
2018-06-05T01:55:28.108Z,1011.72
2018-06-05T01:56:28.137Z,1011.70
2018-06-05T01:57:28.162Z,1011.71
2018-06-05T01:58:28.174Z,1011.71
2018-06-05T01:59:28.199Z,1011.72
2018-06-05T02:00:49.237Z,1011.65
2018-06-05T02:01:28.242Z,1011.70
2018-06-05T02:02:28.265Z,1011.66
2018-06-05T02:03:28.289Z,1011.66
2018-06-05T02:04:28.309Z,1011.69
2018-06-05T02:05:28.336Z,1011.67
2018-06-05T02:06:49.372Z,1011.64
2018-06-05T02:07:28.377Z,1011.68
2018-06-05T02:08:28.402Z,1011.71
2018-06-05T02:09:28.426Z,1011.67
2018-06-05T02:10:28.449Z,1011.65
2018-06-05T02:11:28.465Z,1011.64
2018-06-05T02:12:49.512Z,1011.65
2018-06-05T02:13:28.515Z,1011.66
2018-06-05T02:14:28.535Z,1011.60
2018-06-05T02:15:28.558Z,1011.60
2018-06-05T02:16:28.581Z,1011.58
2018-06-05T02:17:28.605Z,1011.55
2018-06-05T02:18:49.641Z,1011.58
2018-06-05T02:19:28.649Z,1011.53
2018-06-05T02:20:28.672Z,1011.51
2018-06-05T02:21:28.693Z,1011.50
2018-06-05T02:22:28.717Z,1011.57
2018-06-05T02:23:28.738Z,1011.56
2018-06-05T02:24:49.781Z,1011.57
2018-06-05T02:25:28.788Z,1011.56
2018-06-05T02:26:28.803Z,1011.57
2018-06-05T02:27:28.833Z,1011.55
2018-06-05T02:28:28.852Z,1011.58
2018-06-05T02:29:28.875Z,1011.54
2018-06-05T02:30:49.918Z,1011.56
2018-06-05T02:31:28.923Z,1011.48
2018-06-05T02:32:28.941Z,1011.54
2018-06-05T02:33:28.970Z,1011.48
2018-06-05T02:34:28.985Z,1011.51
2018-06-05T02:35:29.010Z,1011.48
2018-06-05T02:36:50.048Z,1011.50
2018-06-05T02:37:29.056Z,1011.50
2018-06-05T02:38:29.077Z,1011.52
2018-06-05T02:39:29.098Z,1011.54
2018-06-05T02:40:29.124Z,1011.53
2018-06-05T02:41:29.144Z,1011.56
2018-06-05T02:42:50.182Z,1011.51
2018-06-05T02:43:29.193Z,1011.54
2018-06-05T02:44:29.213Z,1011.56
2018-06-05T02:45:29.236Z,1011.51
2018-06-05T02:46:29.256Z,1011.49
2018-06-05T02:47:29.285Z,1011.47
2018-06-05T02:48:50.317Z,1011.49
2018-06-05T02:49:29.328Z,1011.48
2018-06-05T02:50:29.345Z,1011.47
2018-06-05T02:51:29.372Z,1011.49
2018-06-05T02:52:29.392Z,1011.48
2018-06-05T02:53:29.416Z,1011.47
2018-06-05T02:54:50.454Z,1011.46
2018-06-05T02:55:29.458Z,1011.44
2018-06-05T02:56:29.480Z,1011.47
2018-06-05T02:57:29.513Z,1011.46
2018-06-05T02:58:29.523Z,1011.50
2018-06-05T02:59:29.547Z,1011.48
2018-06-05T03:00:50.587Z,1011.40
2018-06-05T03:01:29.599Z,1011.47
2018-06-05T03:02:29.625Z,1011.49
2018-06-05T03:03:29.637Z,1011.49
2018-06-05T03:04:29.661Z,1011.56
2018-06-05T03:05:29.683Z,1011.52
2018-06-05T03:06:50.721Z,1011.58
2018-06-05T03:07:29.731Z,1011.53
2018-06-05T03:08:29.752Z,1011.59
2018-06-05T03:09:29.774Z,1011.58
2018-06-05T03:10:29.796Z,1011.60
2018-06-05T03:11:29.818Z,1011.58
2018-06-05T03:12:50.856Z,1011.62
2018-06-05T03:13:29.869Z,1011.61
2018-06-05T03:14:29.886Z,1011.62
2018-06-05T03:15:29.907Z,1011.63
2018-06-05T03:16:29.936Z,1011.66
2018-06-05T03:17:29.953Z,1011.67
2018-06-05T03:18:51.003Z,1011.68
2018-06-05T03:19:29.999Z,1011.69
2018-06-05T03:20:30.020Z,1011.71
2018-06-05T03:21:30.044Z,1011.71
2018-06-05T03:22:30.064Z,1011.68
2018-06-05T03:23:30.086Z,1011.68
2018-06-05T03:24:51.132Z,1011.68
2018-06-05T03:25:30.133Z,1011.72
2018-06-05T03:26:30.154Z,1011.72
2018-06-05T03:27:30.181Z,1011.70
2018-06-05T03:28:30.200Z,1011.70
2018-06-05T03:29:30.224Z,1011.72
2018-06-05T03:30:51.261Z,1011.69
2018-06-05T03:31:30.269Z,1011.69
2018-06-05T03:32:30.289Z,1011.69
2018-06-05T03:33:30.318Z,1011.68
2018-06-05T03:34:30.342Z,1011.72
2018-06-05T03:35:30.357Z,1011.68
2018-06-05T03:36:51.400Z,1011.71
2018-06-05T03:37:30.401Z,1011.72
2018-06-05T03:38:30.423Z,1011.72
2018-06-05T03:39:30.448Z,1011.73
2018-06-05T03:40:30.473Z,1011.73
2018-06-05T03:41:30.495Z,1011.73
2018-06-05T03:42:51.527Z,1011.77
2018-06-05T03:43:30.534Z,1011.78
2018-06-05T03:44:30.566Z,1011.76
2018-06-05T03:45:30.583Z,1011.78
2018-06-05T03:46:30.602Z,1011.77
2018-06-05T03:47:30.634Z,1011.75
2018-06-05T03:48:51.667Z,1011.72
2018-06-05T03:49:30.670Z,1011.77
2018-06-05T03:50:30.693Z,1011.76
2018-06-05T03:51:30.714Z,1011.78
2018-06-05T03:52:30.736Z,1011.80
2018-06-05T03:53:30.761Z,1011.79
2018-06-05T03:54:51.798Z,1011.83
2018-06-05T03:55:30.804Z,1011.83
2018-06-05T03:56:30.875Z,1011.83
2018-06-05T03:57:30.851Z,1011.84
2018-06-05T03:58:30.870Z,1011.83
2018-06-05T03:59:30.893Z,1011.87
2018-06-05T04:00:51.936Z,1011.85
2018-06-05T04:01:30.939Z,1011.91
2018-06-05T04:02:30.960Z,1011.89
2018-06-05T04:03:30.993Z,1011.88
2018-06-05T04:04:31.010Z,1011.87
2018-06-05T04:05:31.028Z,1011.93
2018-06-05T04:06:52.063Z,1011.89
2018-06-05T04:07:31.074Z,1011.88
2018-06-05T04:08:31.097Z,1011.88
2018-06-05T04:09:31.121Z,1011.90
2018-06-05T04:10:31.139Z,1011.93
2018-06-05T04:11:31.161Z,1011.91
2018-06-05T04:12:52.203Z,1011.93
2018-06-05T04:13:31.206Z,1011.95
2018-06-05T04:14:31.229Z,1011.90
2018-06-05T04:15:31.257Z,1011.94
2018-06-05T04:16:31.272Z,1011.92
2018-06-05T04:17:31.297Z,1011.94
2018-06-05T04:18:52.331Z,1011.92
2018-06-05T04:19:31.342Z,1011.97
2018-06-05T04:20:31.364Z,1011.97
2018-06-05T04:21:31.386Z,1011.94
2018-06-05T04:22:31.409Z,1011.98
2018-06-05T04:23:31.430Z,1011.96
2018-06-05T04:24:52.469Z,1011.94
2018-06-05T04:25:31.476Z,1011.97
2018-06-05T04:26:31.503Z,1011.97
2018-06-05T04:27:31.562Z,1012.00
2018-06-05T04:28:31.576Z,1011.98
2018-06-05T04:29:31.565Z,1011.99
2018-06-05T04:30:52.603Z,1012.02
2018-06-05T04:31:31.612Z,1012.01
2018-06-05T04:32:31.629Z,1012.04
2018-06-05T04:33:31.654Z,1012.04
2018-06-05T04:34:31.673Z,1012.05
2018-06-05T04:35:31.697Z,1012.06
2018-06-05T04:36:52.741Z,1012.01
2018-06-05T04:37:31.747Z,1012.02
2018-06-05T04:38:31.762Z,1012.11
2018-06-05T04:39:31.794Z,1012.06
2018-06-05T04:40:31.811Z,1012.10
2018-06-05T04:41:31.833Z,1012.09
2018-06-05T04:42:52.874Z,1012.15
2018-06-05T04:43:31.880Z,1012.12
2018-06-05T04:44:31.899Z,1012.13
2018-06-05T04:45:31.924Z,1012.10
2018-06-05T04:46:31.942Z,1012.09
2018-06-05T04:47:31.966Z,1012.17
2018-06-05T04:48:53.005Z,1012.14
2018-06-05T04:49:32.016Z,1012.16
2018-06-05T04:50:32.036Z,1012.14
2018-06-05T04:51:32.056Z,1012.17
2018-06-05T04:52:32.077Z,1012.17
2018-06-05T04:53:32.101Z,1012.16
2018-06-05T04:54:53.137Z,1012.20
2018-06-05T04:55:32.144Z,1012.23
2018-06-05T04:56:32.166Z,1012.22
2018-06-05T04:57:32.190Z,1012.22
2018-06-05T04:58:32.212Z,1012.23
2018-06-05T04:59:32.236Z,1012.25
2018-06-05T05:00:53.273Z,1012.24
2018-06-05T05:01:32.278Z,1012.28
2018-06-05T05:02:32.300Z,1012.30
2018-06-05T05:03:32.325Z,1012.30
2018-06-05T05:04:32.347Z,1012.25
2018-06-05T05:05:32.369Z,1012.31
2018-06-05T05:06:53.406Z,1012.29
2018-06-05T05:07:32.415Z,1012.29
2018-06-05T05:08:32.442Z,1012.33
2018-06-05T05:09:32.467Z,1012.33
2018-06-05T05:10:32.479Z,1012.33
2018-06-05T05:11:32.521Z,1012.31
2018-06-05T05:12:53.543Z,1012.33
2018-06-05T05:13:32.559Z,1012.29
2018-06-05T05:14:32.568Z,1012.27
2018-06-05T05:15:32.602Z,1012.30
2018-06-05T05:16:32.616Z,1012.28
2018-06-05T05:17:32.636Z,1012.26
2018-06-05T05:18:53.710Z,1012.26
2018-06-05T05:19:32.691Z,1012.25
2018-06-05T05:20:32.703Z,1012.26
2018-06-05T05:21:32.728Z,1012.25
2018-06-05T05:22:32.752Z,1012.28
2018-06-05T05:23:32.775Z,1012.30
2018-06-05T05:24:53.813Z,1012.26
2018-06-05T05:25:32.815Z,1012.31
2018-06-05T05:26:32.838Z,1012.29
2018-06-05T05:27:32.860Z,1012.28
2018-06-05T05:28:32.882Z,1012.29
2018-06-05T05:29:32.907Z,1012.30
2018-06-05T05:30:53.990Z,1012.27
2018-06-05T05:31:32.949Z,1012.28
2018-06-05T05:32:32.971Z,1012.30
2018-06-05T05:33:32.998Z,1012.30
2018-06-05T05:34:33.016Z,1012.32
2018-06-05T05:35:33.052Z,1012.35
2018-06-05T05:36:54.081Z,1012.32
2018-06-05T05:37:33.086Z,1012.34
2018-06-05T05:38:33.110Z,1012.34
2018-06-05T05:39:33.130Z,1012.36
2018-06-05T05:40:33.151Z,1012.35
2018-06-05T05:41:33.176Z,1012.35
2018-06-05T05:42:54.210Z,1012.33
2018-06-05T05:43:33.220Z,1012.33
2018-06-05T05:44:33.238Z,1012.32
2018-06-05T05:45:33.264Z,1012.39
2018-06-05T05:46:33.284Z,1012.37
2018-06-05T05:47:33.308Z,1012.35
2018-06-05T05:48:54.350Z,1012.43
2018-06-05T05:49:33.353Z,1012.42
2018-06-05T05:50:33.375Z,1012.41
2018-06-05T05:51:33.398Z,1012.45
2018-06-05T05:52:33.423Z,1012.47
2018-06-05T05:53:33.445Z,1012.44
2018-06-05T05:54:54.501Z,1012.52
2018-06-05T05:55:33.491Z,1012.49
2018-06-05T05:56:33.517Z,1012.52
2018-06-05T05:57:33.534Z,1012.48
2018-06-05T05:58:33.551Z,1012.53
2018-06-05T05:59:33.577Z,1012.48
2018-06-05T06:00:54.620Z,1012.50
2018-06-05T06:01:33.620Z,1012.51
2018-06-05T06:02:33.645Z,1012.52
2018-06-05T06:03:33.670Z,1012.52
2018-06-05T06:04:33.691Z,1012.52
2018-06-05T06:05:33.711Z,1012.56
2018-06-05T06:06:54.753Z,1012.55
2018-06-05T06:07:33.760Z,1012.56
2018-06-05T06:08:33.781Z,1012.57
2018-06-05T06:09:33.804Z,1012.54
2018-06-05T06:10:33.832Z,1012.59
2018-06-05T06:11:33.850Z,1012.56
2018-06-05T06:12:54.893Z,1012.59
2018-06-05T06:13:33.892Z,1012.61
2018-06-05T06:14:33.921Z,1012.61
2018-06-05T06:15:33.940Z,1012.64
2018-06-05T06:16:33.962Z,1012.63
2018-06-05T06:17:33.984Z,1012.67
2018-06-05T06:18:55.021Z,1012.66
2018-06-05T06:19:34.028Z,1012.69
2018-06-05T06:20:34.060Z,1012.72
2018-06-05T06:21:34.075Z,1012.70
2018-06-05T06:22:34.125Z,1012.71
2018-06-05T06:23:34.121Z,1012.73
2018-06-05T06:24:55.160Z,1012.70
2018-06-05T06:25:34.164Z,1012.68
2018-06-05T06:26:34.190Z,1012.70
2018-06-05T06:27:34.207Z,1012.69
2018-06-05T06:28:34.237Z,1012.67
2018-06-05T06:29:34.256Z,1012.64
2018-06-05T06:30:55.295Z,1012.67
2018-06-05T06:31:34.304Z,1012.71
2018-06-05T06:32:34.322Z,1012.72
2018-06-05T06:33:34.345Z,1012.67
2018-06-05T06:34:34.375Z,1012.68
2018-06-05T06:35:34.389Z,1012.68
2018-06-05T06:36:55.427Z,1012.66
2018-06-05T06:37:34.435Z,1012.62
2018-06-05T06:38:34.471Z,1012.62
2018-06-05T06:39:34.478Z,1012.62
2018-06-05T06:40:34.508Z,1012.59
2018-06-05T06:41:34.526Z,1012.61
2018-06-05T06:42:55.570Z,1012.60
2018-06-05T06:43:34.570Z,1012.61
2018-06-05T06:44:34.593Z,1012.63
2018-06-05T06:45:34.618Z,1012.64
2018-06-05T06:46:34.639Z,1012.66
2018-06-05T06:47:34.670Z,1012.65
2018-06-05T06:48:55.747Z,1012.69
2018-06-05T06:49:34.710Z,1012.67
2018-06-05T06:50:34.728Z,1012.69
2018-06-05T06:51:34.753Z,1012.74
2018-06-05T06:52:34.770Z,1012.76
2018-06-05T06:53:34.818Z,1012.75
2018-06-05T06:54:55.840Z,1012.73
2018-06-05T06:55:34.917Z,1012.74
2018-06-05T06:56:34.871Z,1012.74
2018-06-05T06:57:34.901Z,1012.71
2018-06-05T06:58:34.912Z,1012.68
2018-06-05T06:59:34.936Z,1012.69
2018-06-05T07:00:56.261Z,1012.71
2018-06-05T07:01:34.980Z,1012.75
2018-06-05T07:02:35.002Z,1012.76
2018-06-05T07:03:35.141Z,1012.75
2018-06-05T07:04:35.052Z,1012.78
2018-06-05T07:05:35.080Z,1012.82
2018-06-05T07:06:56.112Z,1012.81
2018-06-05T07:07:35.120Z,1012.82
2018-06-05T07:08:35.140Z,1012.80
2018-06-05T07:09:35.163Z,1012.84
2018-06-05T07:10:35.181Z,1012.82
2018-06-05T07:11:35.208Z,1012.83
2018-06-05T07:12:56.257Z,1012.81
2018-06-05T07:13:35.270Z,1012.83
2018-06-05T07:14:35.285Z,1012.81
2018-06-05T07:15:35.295Z,1012.83
2018-06-05T07:16:35.339Z,1012.87
2018-06-05T07:17:35.348Z,1012.84
2018-06-05T07:18:56.380Z,1012.87
2018-06-05T07:19:35.401Z,1012.90
2018-06-05T07:20:35.413Z,1012.90
2018-06-05T07:21:35.434Z,1012.90
2018-06-05T07:22:35.453Z,1012.95
2018-06-05T07:23:35.479Z,1012.94
2018-06-05T07:24:56.519Z,1012.90
2018-06-05T07:25:35.525Z,1012.90
2018-06-05T07:26:35.552Z,1012.90
2018-06-05T07:27:35.601Z,1012.93
2018-06-05T07:28:35.594Z,1012.93
2018-06-05T07:29:35.627Z,1012.91
2018-06-05T07:30:56.657Z,1012.95
2018-06-05T07:31:35.662Z,1012.97
2018-06-05T07:32:35.688Z,1012.96
2018-06-05T07:33:35.714Z,1012.98
2018-06-05T07:34:35.732Z,1012.99
2018-06-05T07:35:35.762Z,1013.02
2018-06-05T07:36:56.804Z,1012.99
2018-06-05T07:37:35.809Z,1012.99
2018-06-05T07:38:35.822Z,1013.01
2018-06-05T07:39:35.844Z,1013.03
2018-06-05T07:40:35.877Z,1013.01
2018-06-05T07:41:35.901Z,1012.98
2018-06-05T07:42:56.929Z,1013.01
2018-06-05T07:43:35.940Z,1012.99
2018-06-05T07:44:35.964Z,1013.03
2018-06-05T07:45:35.985Z,1013.01
2018-06-05T07:46:36.007Z,1012.96
2018-06-05T07:47:36.030Z,1012.98
2018-06-05T07:48:57.069Z,1013.02
2018-06-05T07:49:36.072Z,1013.01
2018-06-05T07:50:36.099Z,1013.00
2018-06-05T07:51:36.123Z,1013.02
2018-06-05T07:52:36.148Z,1012.97
2018-06-05T07:53:36.184Z,1013.03
2018-06-05T07:54:57.205Z,1012.98
2018-06-05T07:55:36.215Z,1013.01
2018-06-05T07:56:36.232Z,1013.01
2018-06-05T07:57:36.264Z,1013.00
2018-06-05T07:58:36.290Z,1013.02
2018-06-05T07:59:36.313Z,1012.99
2018-06-05T08:00:57.350Z,1012.97
2018-06-05T08:01:36.367Z,1012.99
2018-06-05T08:02:36.378Z,1012.96
2018-06-05T08:03:36.402Z,1012.99
2018-06-05T08:04:36.425Z,1012.94
2018-06-05T08:05:36.449Z,1012.95
2018-06-05T08:06:57.486Z,1012.93
2018-06-05T08:07:36.495Z,1012.94
2018-06-05T08:08:36.543Z,1012.93
2018-06-05T08:09:36.543Z,1012.95
2018-06-05T08:10:36.587Z,1012.90
2018-06-05T08:11:36.603Z,1012.94
2018-06-05T08:12:57.624Z,1012.97
2018-06-05T08:13:36.659Z,1012.95
2018-06-05T08:14:36.673Z,1012.93
2018-06-05T08:15:37.348Z,1012.95
2018-06-05T08:16:36.724Z,1012.94
2018-06-05T08:17:36.728Z,1012.94
2018-06-05T08:18:57.779Z,1012.94
2018-06-05T08:19:36.786Z,1012.93
2018-06-05T08:20:36.839Z,1012.92
2018-06-05T08:21:37.382Z,1012.94
2018-06-05T08:22:36.881Z,1012.95
2018-06-05T08:23:36.876Z,1012.93
2018-06-05T08:24:57.920Z,1012.96
2018-06-05T08:25:36.945Z,1013.00
2018-06-05T08:26:36.952Z,1012.97
2018-06-05T08:27:36.976Z,1012.97
2018-06-05T08:28:36.996Z,1012.96
2018-06-05T08:29:37.020Z,1012.97
2018-06-05T08:30:58.058Z,1012.97
2018-06-05T08:31:37.061Z,1012.99
2018-06-05T08:32:37.087Z,1013.01
2018-06-05T08:33:37.110Z,1013.00
2018-06-05T08:34:37.139Z,1013.00
2018-06-05T08:35:37.159Z,1013.04
2018-06-05T08:36:58.207Z,1013.02
2018-06-05T08:37:37.208Z,1013.03
2018-06-05T08:38:37.225Z,1013.04
2018-06-05T08:39:37.268Z,1013.02
2018-06-05T08:40:37.279Z,1013.02
2018-06-05T08:41:37.326Z,1013.05
2018-06-05T08:42:58.363Z,1012.97
2018-06-05T08:43:37.352Z,1013.00
2018-06-05T08:44:37.375Z,1013.00
2018-06-05T08:45:37.404Z,1013.03
2018-06-05T08:46:37.430Z,1013.06
2018-06-05T08:47:37.450Z,1013.07
2018-06-05T08:48:58.499Z,1013.05
2018-06-05T08:49:37.500Z,1013.08
2018-06-05T08:50:37.552Z,1013.06
2018-06-05T08:51:37.544Z,1013.10
2018-06-05T08:52:37.569Z,1013.09
2018-06-05T08:53:37.624Z,1013.10
2018-06-05T08:54:58.638Z,1013.09
2018-06-05T08:55:37.647Z,1013.12
2018-06-05T08:56:37.672Z,1013.11
2018-06-05T08:57:37.750Z,1013.11
2018-06-05T08:58:38.005Z,1013.11
2018-06-05T08:59:37.743Z,1013.12
2018-06-05T09:00:58.778Z,1013.14
2018-06-05T09:01:37.787Z,1013.16
2018-06-05T09:02:37.807Z,1013.15
2018-06-05T09:03:37.832Z,1013.14
2018-06-05T09:04:37.856Z,1013.20
2018-06-05T09:05:37.882Z,1013.18
2018-06-05T09:06:58.917Z,1013.17
2018-06-05T09:07:37.928Z,1013.18
2018-06-05T09:08:38.000Z,1013.20
2018-06-05T09:09:37.982Z,1013.10
2018-06-05T09:10:38.000Z,1013.18
2018-06-05T09:11:38.070Z,1013.21
2018-06-05T09:12:59.069Z,1013.18
2018-06-05T09:13:38.069Z,1013.22
2018-06-05T09:14:38.097Z,1013.19
2018-06-05T09:15:38.123Z,1013.19
2018-06-05T09:16:38.193Z,1013.20
2018-06-05T09:17:38.178Z,1013.19
2018-06-05T09:18:59.211Z,1013.17
2018-06-05T09:19:38.219Z,1013.14
2018-06-05T09:20:38.266Z,1013.17
2018-06-05T09:21:38.294Z,1013.22
2018-06-05T09:22:38.292Z,1013.25
2018-06-05T09:23:38.320Z,1013.22
2018-06-05T09:24:59.402Z,1013.21
2018-06-05T09:25:38.365Z,1013.21
2018-06-05T09:26:38.396Z,1013.25
2018-06-05T09:27:38.417Z,1013.24
2018-06-05T09:28:38.444Z,1013.24
2018-06-05T09:29:38.469Z,1013.21
2018-06-05T09:30:59.570Z,1013.21
2018-06-05T09:31:38.576Z,1013.21
2018-06-05T09:32:38.540Z,1013.23
2018-06-05T09:33:38.559Z,1013.25
2018-06-05T09:34:38.585Z,1013.23
2018-06-05T09:35:38.610Z,1013.25
2018-06-05T09:36:59.665Z,1013.24
2018-06-05T09:37:38.658Z,1013.24
2018-06-05T09:38:38.692Z,1013.22
2018-06-05T09:39:38.713Z,1013.15
2018-06-05T09:40:38.737Z,1013.15
2018-06-05T09:41:38.755Z,1013.18
2018-06-05T09:42:59.795Z,1013.14
2018-06-05T09:43:38.817Z,1013.15
2018-06-05T09:44:38.834Z,1013.17
2018-06-05T09:45:38.847Z,1013.16
2018-06-05T09:46:38.879Z,1013.17
2018-06-05T09:47:38.901Z,1013.21
2018-06-05T09:48:59.941Z,1013.17
2018-06-05T09:49:38.945Z,1013.18
2018-06-05T09:50:38.972Z,1013.17
2018-06-05T09:51:38.998Z,1013.17
2018-06-05T09:52:39.020Z,1013.16
2018-06-05T09:53:39.044Z,1013.14
2018-06-05T09:55:00.150Z,1013.15
2018-06-05T09:55:39.093Z,1013.14
2018-06-05T09:56:39.116Z,1013.12
2018-06-05T09:57:39.175Z,1013.16
2018-06-05T09:58:39.171Z,1013.08
2018-06-05T09:59:39.196Z,1013.14
2018-06-05T10:01:00.234Z,1013.11
2018-06-05T10:01:39.239Z,1013.14
2018-06-05T10:02:39.261Z,1013.15
2018-06-05T10:03:39.285Z,1013.13
2018-06-05T10:04:39.311Z,1013.11
2018-06-05T10:05:39.344Z,1013.15
2018-06-05T10:07:00.412Z,1013.10
2018-06-05T10:07:39.386Z,1013.12
2018-06-05T10:08:39.406Z,1013.08
2018-06-05T10:09:39.431Z,1013.09
2018-06-05T10:10:39.458Z,1013.06
2018-06-05T10:11:39.492Z,1013.09
2018-06-05T10:13:00.520Z,1013.07
2018-06-05T10:13:39.543Z,1013.07
2018-06-05T10:14:39.585Z,1013.07
2018-06-05T10:15:39.601Z,1013.06
2018-06-05T10:16:39.639Z,1013.07
2018-06-05T10:17:39.631Z,1013.07
2018-06-05T10:19:00.676Z,1013.08
2018-06-05T10:19:39.675Z,1013.13
2018-06-05T10:20:39.699Z,1013.09
2018-06-05T10:21:39.726Z,1013.05
2018-06-05T10:22:39.747Z,1013.06
2018-06-05T10:23:39.766Z,1013.01
2018-06-05T10:25:00.807Z,1012.99
2018-06-05T10:25:39.828Z,1012.99
2018-06-05T10:26:39.849Z,1012.99
2018-06-05T10:27:39.861Z,1013.01
2018-06-05T10:28:39.899Z,1012.99
2018-06-05T10:29:39.908Z,1013.01
2018-06-05T10:31:00.967Z,1012.97
2018-06-05T10:31:39.958Z,1012.97
2018-06-05T10:32:39.991Z,1013.02
2018-06-05T10:33:40.006Z,1013.02
2018-06-05T10:34:40.037Z,1012.98
2018-06-05T10:35:40.052Z,1013.03
2018-06-05T10:37:01.137Z,1013.00
2018-06-05T10:37:40.107Z,1013.02
2018-06-05T10:38:40.127Z,1013.02
2018-06-05T10:39:40.151Z,1012.97
2018-06-05T10:40:40.180Z,1012.98
2018-06-05T10:41:40.201Z,1012.95
2018-06-05T10:43:01.236Z,1012.99
2018-06-05T10:43:40.249Z,1012.97
2018-06-05T10:44:40.273Z,1012.98
2018-06-05T10:45:40.291Z,1012.97
2018-06-05T10:46:40.365Z,1013.01
2018-06-05T10:47:40.338Z,1013.00
2018-06-05T10:49:01.384Z,1013.01
2018-06-05T10:49:40.397Z,1012.99
2018-06-05T10:50:40.410Z,1013.04
2018-06-05T10:51:40.562Z,1013.05
2018-06-05T10:52:40.460Z,1013.08
2018-06-05T10:53:40.505Z,1013.07
2018-06-05T10:55:01.521Z,1013.05
2018-06-05T10:55:40.527Z,1013.04
2018-06-05T10:56:40.552Z,1013.03
2018-06-05T10:57:40.583Z,1013.03
2018-06-05T10:58:40.601Z,1013.01
2018-06-05T10:59:40.623Z,1013.04
2018-06-05T11:01:01.669Z,1013.03
2018-06-05T11:01:40.674Z,1013.01
2018-06-05T11:02:40.694Z,1012.97
2018-06-05T11:03:40.720Z,1012.96
2018-06-05T11:04:40.760Z,1012.98
2018-06-05T11:05:40.776Z,1012.97
2018-06-05T11:07:01.809Z,1012.99
2018-06-05T11:07:40.815Z,1013.04
2018-06-05T11:08:40.856Z,1013.00
2018-06-05T11:09:40.875Z,1012.95
2018-06-05T11:10:40.883Z,1012.97
2018-06-05T11:11:40.909Z,1012.97
2018-06-05T11:13:01.954Z,1012.94
2018-06-05T11:13:40.963Z,1012.93
2018-06-05T11:14:40.984Z,1012.92
2018-06-05T11:15:41.000Z,1012.91
2018-06-05T11:16:41.243Z,1012.89
2018-06-05T11:17:41.052Z,1012.92
2018-06-05T11:19:02.090Z,1012.86
2018-06-05T11:19:41.103Z,1012.88
2018-06-05T11:20:41.124Z,1012.90
2018-06-05T11:21:41.141Z,1012.80
2018-06-05T11:22:41.170Z,1012.81
2018-06-05T11:23:41.247Z,1012.86
2018-06-05T11:25:02.234Z,1012.85
2018-06-05T11:25:41.243Z,1012.79
2018-06-05T11:26:41.262Z,1012.81
2018-06-05T11:27:41.284Z,1012.79
2018-06-05T11:28:41.316Z,1012.81
2018-06-05T11:29:41.357Z,1012.79
2018-06-05T11:31:02.375Z,1012.73
2018-06-05T11:31:41.382Z,1012.73
2018-06-05T11:32:41.403Z,1012.75
2018-06-05T11:33:41.432Z,1012.70
2018-06-05T11:34:41.450Z,1012.73
2018-06-05T11:35:41.475Z,1012.70
2018-06-05T11:37:02.512Z,1012.75
2018-06-05T11:37:41.526Z,1012.75
2018-06-05T11:38:41.549Z,1012.73
2018-06-05T11:39:41.591Z,1012.73
2018-06-05T11:40:41.615Z,1012.75
2018-06-05T11:41:41.628Z,1012.74
2018-06-05T11:43:02.660Z,1012.73
2018-06-05T11:43:41.674Z,1012.72
2018-06-05T11:44:41.687Z,1012.70
2018-06-05T11:45:41.716Z,1012.73
2018-06-05T11:46:41.742Z,1012.71
2018-06-05T11:47:41.758Z,1012.74
2018-06-05T11:49:02.827Z,1012.75
2018-06-05T11:49:41.863Z,1012.70
2018-06-05T11:50:41.839Z,1012.74
2018-06-05T11:51:41.848Z,1012.75
2018-06-05T11:52:41.871Z,1012.72
2018-06-05T11:53:41.897Z,1012.75
2018-06-05T11:55:02.963Z,1012.72
2018-06-05T11:55:41.954Z,1012.72
2018-06-05T11:56:41.977Z,1012.67
2018-06-05T11:57:42.000Z,1012.63
2018-06-05T11:58:42.029Z,1012.66
2018-06-05T11:59:42.035Z,1012.61
2018-06-05T12:01:03.084Z,1012.62
2018-06-05T12:01:42.192Z,1012.62
2018-06-05T12:02:42.114Z,1012.62
2018-06-05T12:03:42.240Z,1012.67
2018-06-05T12:04:42.462Z,1012.68
2018-06-05T12:05:42.188Z,1012.64